Diablo — WDG2170 — position and weather

sailwx.info

Track history (hours):
 
Tides and Currents Weather Stations Pressure Air Temp Water Temp Dewpoint Dewpoint Depression Visibility Wind Speed Wind Dir Waves Ship Positions

Diablo

Owner: Harley Marine Services, Inc, Seattle, WA. More information available from US FCC via Universal Licensing System and Coast Guard Vessel Documentation Center.

Last reported at 2017-Sep-25 11:30 UTC. Time now 2017-Sep-25 11:45 UTC.
Position N 29°44' W 095°08'.

Length 24 m; draft 2.6 m.

Type: Tug. MMSI: 367512880.

Date/timePositionNaut miles runAvg speedWind from/ knotsBaromVisibWave heightAir tempDewpointWater temp
2017-Sep-25 11:30N 29°44' W 095°08'0 0.0
2017-Sep-25 10:58N 29°44' W 095°08'0 0.0
2017-Sep-25 10:30N 29°44' W 095°08'0 0.0
2017-Sep-25 10:01N 29°44' W 095°08'0 0.0
2017-Sep-25 09:31N 29°44' W 095°08'0 0.0
2017-Sep-25 09:01N 29°44' W 095°08'0 0.0
2017-Sep-25 08:31N 29°44' W 095°08'0 0.0
2017-Sep-25 08:01N 29°44' W 095°08'0 0.0
2017-Sep-25 07:30N 29°44' W 095°08'0 0.0
2017-Sep-25 07:01N 29°44' W 095°08'0 0.1
2017-Sep-25 06:29N 29°44' W 095°08'3 5.2
2017-Sep-25 06:00N 29°45' W 095°11'2 0.4
2017-Sep-25 00:59N 29°44' W 095°13'1 2.7
2017-Sep-25 00:29N 29°43' W 095°15'2 3.5
2017-Sep-24 23:58N 29°44' W 095°17'0 0.0
2017-Sep-24 23:29N 29°44' W 095°17'0 0.0
2017-Sep-24 23:00N 29°44' W 095°17'0 0.0
2017-Sep-24 22:30N 29°44' W 095°17'0 0.0
2017-Sep-24 22:00N 29°44' W 095°17'0 0.0
2017-Sep-24 21:30N 29°44' W 095°17'0 0.0
2017-Sep-24 20:59N 29°44' W 095°17'0 0.0
2017-Sep-24 20:30N 29°44' W 095°17'0 0.0
2017-Sep-24 20:00N 29°44' W 095°17'0 0.0
2017-Sep-24 19:29N 29°44' W 095°17'0 0.0
2017-Sep-24 18:56N 29°44' W 095°17'0 0.0
2017-Sep-24 18:29N 29°44' W 095°17'0 0.0
2017-Sep-24 18:00N 29°44' W 095°17'0 0.0
2017-Sep-24 12:54N 29°44' W 095°17'1 1.4
2017-Sep-24 12:31N 29°44' W 095°16'2 4.5
2017-Sep-24 12:00N 29°44' W 095°13'3 5.6
2017-Sep-24 11:31N 29°45' W 095°11'3 6.4
2017-Sep-24 11:00N 29°44' W 095°07'1 2.5
2017-Sep-24 10:25N 29°45' W 095°06'1 2.1
2017-Sep-24 09:54N 29°46' W 095°07'0 0.7
2017-Sep-24 09:29N 29°46' W 095°07'0 0.0
2017-Sep-24 08:56N 29°46' W 095°07'1 0.1
2017-Sep-24 00:47N 29°46' W 095°07'1 3.2
2017-Sep-24 00:30N 29°45' W 095°06'1 0.4
2017-Sep-23 22:27N 29°45' W 095°06'0 0.0
2017-Sep-23 21:52N 29°45' W 095°06'0 0.0
2017-Sep-23 21:29N 29°45' W 095°06'0 0.0
2017-Sep-23 19:37N 29°45' W 095°06'2 0.0
2017-Sep-22 01:17N 29°47' W 095°06'0 0.1
2017-Sep-22 00:56N 29°47' W 095°06'1 2.5
2017-Sep-22 00:30N 29°46' W 095°05'5 6.7
2017-Sep-21 23:43N 29°45' W 095°11'2 6.9
2017-Sep-21 23:27N 29°43' W 095°13'3 5.3
2017-Sep-21 22:59N 29°44' W 095°16'1 1.1
2017-Sep-21 22:30N 29°44' W 095°17'0 0.2
2017-Sep-21 22:00N 29°44' W 095°17'1 0.6
2017-Sep-21 20:57N 29°44' W 095°17'0 0.0
2017-Sep-21 20:16N 29°44' W 095°17'0 0.0
2017-Sep-21 20:00N 29°44' W 095°17'0 0.0
2017-Sep-21 19:01N 29°44' W 095°17'0 0.4
2017-Sep-21 19:00N 29°44' W 095°17'0 0.0
2017-Sep-21 18:18N 29°44' W 095°17'0 0.0
2017-Sep-21 18:01N 29°44' W 095°17'0 0.0
2017-Sep-21 15:05N 29°44' W 095°17'0 0.1
2017-Sep-21 15:00N 29°44' W 095°17'0 0.1
2017-Sep-21 14:31N 29°44' W 095°17'1 1.3
2017-Sep-21 13:25N 29°44' W 095°15'4 5.3
2017-Sep-21 12:43N 29°45' W 095°11'1 7.3
2017-Sep-21 12:31N 29°45' W 095°10'4 3.0
2017-Sep-21 11:17N 29°47' W 095°06'0 0.0
2017-Sep-21 10:44N 29°47' W 095°06'0 0.0
2017-Sep-21 10:30N 29°47' W 095°06'0 0.0
2017-Sep-21 09:44N 29°47' W 095°06'0 0.0
2017-Sep-21 09:18N 29°47' W 095°06'0 0.0
2017-Sep-21 08:51N 29°47' W 095°06'0 0.0
2017-Sep-21 08:17N 29°47' W 095°06'0 0.0
2017-Sep-21 08:00N 29°47' W 095°06'0 0.0
2017-Sep-21 07:11N 29°47' W 095°06'0 0.0
2017-Sep-21 07:00N 29°47' W 095°06'0 0.0
2017-Sep-21 06:02N 29°47' W 095°06'0 0.2
2017-Sep-21 06:00N 29°47' W 095°06'0 0.0
2017-Sep-21 05:27N 29°47' W 095°06'0 0.0
2017-Sep-21 02:55N 29°47' W 095°06'1 1.9
2017-Sep-21 02:30N 29°46' W 095°06'1 2.7
2017-Sep-21 01:58N 29°44' W 095°07'1 0.2
2017-Sep-20 19:12N 29°44' W 095°08'0 0.0
2017-Sep-20 18:58N 29°44' W 095°08'0 0.0
2017-Sep-20 17:53N 29°44' W 095°08'3 6.8
2017-Sep-20 17:25N 29°45' W 095°11'3 7.2
2017-Sep-20 16:59N 29°43' W 095°14'2 1.8
2017-Sep-20 15:46N 29°44' W 095°17'0 0.0
2017-Sep-20 15:26N 29°44' W 095°17'0 0.0
2017-Sep-20 15:00N 29°44' W 095°17'0 0.0
2017-Sep-20 14:00N 29°44' W 095°17'0 0.0
2017-Sep-20 13:25N 29°44' W 095°17'0 0.0
2017-Sep-20 12:07N 29°44' W 095°17'0 0.0
2017-Sep-20 11:48N 29°44' W 095°17'0 0.0
2017-Sep-20 11:28N 29°44' W 095°17'0 0.0
2017-Sep-20 07:55N 29°44' W 095°17'0 0.0
2017-Sep-20 07:30N 29°44' W 095°17'1 1.7
2017-Sep-20 06:58N 29°45' W 095°17'2 4.2
2017-Sep-20 06:27N 29°44' W 095°15'3 5.4
2017-Sep-20 05:53N 29°44' W 095°12'2 5.0
2017-Sep-20 05:31N 29°45' W 095°10'4 5.6
2017-Sep-20 04:51N 29°45' W 095°06'2 4.7
2017-Sep-20 04:30N 29°45' W 095°04'2 0.2
2017-Sep-19 18:09N 29°47' W 095°06'0 0.0
2017-Sep-19 17:51N 29°47' W 095°06'0 0.0
2017-Sep-19 17:21N 29°47' W 095°06'0 0.0
2017-Sep-19 16:30N 29°47' W 095°06'0 0.0
2017-Sep-19 15:54N 29°47' W 095°06'0 0.0
2017-Sep-19 15:15N 29°47' W 095°06'0 0.0
2017-Sep-19 14:45N 29°47' W 095°06'0 0.0
2017-Sep-19 14:30N 29°47' W 095°06'0 0.0
2017-Sep-19 13:48N 29°47' W 095°06'0 0.0
2017-Sep-19 13:12N 29°47' W 095°06'0 0.0
2017-Sep-19 12:54N 29°47' W 095°06'0 0.0
2017-Sep-19 12:30N 29°47' W 095°06'0 0.0
2017-Sep-19 11:57N 29°47' W 095°06'1 1.7
2017-Sep-19 11:30N 29°46' W 095°06'3 4.0
2017-Sep-19 10:48N 29°44' W 095°08'2 4.4
2017-Sep-19 10:25N 29°45' W 095°10'0 0.1
2017-Sep-19 10:00N 29°45' W 095°10'0 0.0
2017-Sep-19 09:30N 29°45' W 095°10'0 0.0
2017-Sep-19 09:00N 29°45' W 095°10'0 0.0
2017-Sep-19 08:30N 29°45' W 095°10'0 0.0
2017-Sep-19 07:58N 29°45' W 095°10'0 0.0
2017-Sep-19 07:30N 29°45' W 095°10'0 0.0
2017-Sep-19 06:36N 29°45' W 095°10'0 0.0
2017-Sep-19 06:22N 29°45' W 095°10'0 0.0
2017-Sep-19 06:00N 29°45' W 095°10'0 0.0
2017-Sep-19 05:23N 29°45' W 095°10'0 0.0
2017-Sep-19 04:59N 29°45' W 095°10'0 0.0
2017-Sep-19 04:30N 29°45' W 095°10'0 0.0
2017-Sep-19 04:00N 29°45' W 095°10'0 0.0
2017-Sep-19 03:22N 29°45' W 095°10'0 0.0
2017-Sep-19 03:00N 29°45' W 095°10'0 0.0
2017-Sep-19 02:30N 29°45' W 095°10'1 2.7
2017-Sep-19 02:00N 29°44' W 095°09'3 2.8
2017-Sep-19 00:46N 29°47' W 095°06'0 0.0
2017-Sep-19 00:30N 29°47' W 095°06'0 0.0
2017-Sep-19 00:00N 29°47' W 095°06'0 0.0
2017-Sep-18 23:29N 29°47' W 095°06'0 0.0
2017-Sep-18 23:00N 29°47' W 095°06'0 0.0
2017-Sep-18 22:30N 29°47' W 095°06'0 0.0
2017-Sep-18 22:00N 29°47' W 095°06'0 0.0
2017-Sep-18 21:30N 29°47' W 095°06'0 0.0
2017-Sep-18 20:59N 29°47' W 095°06'0 0.0
2017-Sep-18 20:30N 29°47' W 095°06'0 0.0
2017-Sep-18 20:00N 29°47' W 095°06'0 0.0
2017-Sep-18 19:12N 29°47' W 095°06'0 0.0
2017-Sep-18 18:59N 29°47' W 095°06'0 0.0
2017-Sep-18 18:30N 29°47' W 095°06'0 0.0
2017-Sep-18 18:00N 29°47' W 095°06'0 0.0
2017-Sep-18 17:30N 29°47' W 095°06'0 0.0
2017-Sep-18 17:00N 29°47' W 095°06'0 0.0
2017-Sep-18 16:30N 29°47' W 095°06'0 0.0
2017-Sep-18 16:00N 29°47' W 095°06'0 0.0
2017-Sep-18 15:30N 29°47' W 095°06'1 1.4
2017-Sep-18 15:00N 29°46' W 095°06'0 0.8
2017-Sep-18 14:30N 29°46' W 095°06'0 0.0
2017-Sep-18 05:41N 29°46' W 095°06'1 3.0
2017-Sep-18 05:29N 29°45' W 095°06'4 0.3
2017-Sep-17 18:46N 29°45' W 095°10'1 5.0
2017-Sep-17 18:29N 29°44' W 095°08'3 3.1
2017-Sep-17 17:28N 29°47' W 095°06'0 0.0
2017-Sep-17 09:49N 29°47' W 095°06'0 0.3
2017-Sep-17 09:08N 29°46' W 095°06'1 4.0
2017-Sep-17 08:58N 29°46' W 095°06'3 5.6
2017-Sep-17 08:30N 29°44' W 095°03'3 6.8
2017-Sep-17 08:00N 29°42' W 095°00'1 2.4
2017-Sep-17 07:30N 29°41' W 095°01'0 0.0
2017-Sep-17 07:00N 29°41' W 095°01'0 0.0
2017-Sep-17 06:30N 29°41' W 095°01'0 0.0
2017-Sep-17 06:00N 29°41' W 095°01'0 0.0
2017-Sep-17 05:30N 29°41' W 095°01'0 0.0
2017-Sep-17 05:00N 29°41' W 095°01'0 0.0
2017-Sep-17 04:30N 29°41' W 095°01'0 0.0
2017-Sep-17 04:00N 29°41' W 095°01'1 2.1
2017-Sep-17 03:26N 29°42' W 095°01'5 7.4
2017-Sep-17 02:43N 29°46' W 095°05'0 0.0
2017-Sep-16 19:20N 29°46' W 095°05'2 6.1
2017-Sep-16 19:00N 29°44' W 095°04'3 5.8
2017-Sep-16 18:30N 29°42' W 095°01'3 5.9
2017-Sep-16 18:00N 29°40' W 094°59'3 6.7
2017-Sep-16 17:30N 29°37' W 094°57'3 6.9
2017-Sep-16 17:00N 29°34' W 094°55'3 6.9
2017-Sep-16 16:30N 29°31' W 094°53'  
Track history (hours):
 
Tides and Currents Weather Stations Pressure Air Temp Water Temp Dewpoint Dewpoint Depression Visibility Wind Speed Wind Dir Waves Ship Positions

Diablo

Owner: Harley Marine Services, Inc, Seattle, WA. More information available from US FCC via Universal Licensing System and Coast Guard Vessel Documentation Center.

Last reported at 2017-Sep-25 11:30 UTC. Time now 2017-Sep-25 11:45 UTC.
Position N 29°44' W 095°08'.

Length 24 m; draft 2.6 m.

Type: Tug. MMSI: 367512880.

Date/timePositionNaut miles runAvg speedWind from/ knotsBaromVisibWave heightAir tempDewpointWater temp
2017-Sep-25 11:30N 29°44' W 095°08'0 0.0
2017-Sep-25 10:58N 29°44' W 095°08'0 0.0
2017-Sep-25 10:30N 29°44' W 095°08'0 0.0
2017-Sep-25 10:01N 29°44' W 095°08'0 0.0
2017-Sep-25 09:31N 29°44' W 095°08'0 0.0
2017-Sep-25 09:01N 29°44' W 095°08'0 0.0
2017-Sep-25 08:31N 29°44' W 095°08'0 0.0
2017-Sep-25 08:01N 29°44' W 095°08'0 0.0
2017-Sep-25 07:30N 29°44' W 095°08'0 0.0
2017-Sep-25 07:01N 29°44' W 095°08'0 0.1
2017-Sep-25 06:29N 29°44' W 095°08'3 5.2
2017-Sep-25 06:00N 29°45' W 095°11'2 0.4
2017-Sep-25 00:59N 29°44' W 095°13'1 2.7
2017-Sep-25 00:29N 29°43' W 095°15'2 3.5
2017-Sep-24 23:58N 29°44' W 095°17'0 0.0
2017-Sep-24 23:29N 29°44' W 095°17'0 0.0
2017-Sep-24 23:00N 29°44' W 095°17'0 0.0
2017-Sep-24 22:30N 29°44' W 095°17'0 0.0
2017-Sep-24 22:00N 29°44' W 095°17'0 0.0
2017-Sep-24 21:30N 29°44' W 095°17'0 0.0
2017-Sep-24 20:59N 29°44' W 095°17'0 0.0
2017-Sep-24 20:30N 29°44' W 095°17'0 0.0
2017-Sep-24 20:00N 29°44' W 095°17'0 0.0
2017-Sep-24 19:29N 29°44' W 095°17'0 0.0
2017-Sep-24 18:56N 29°44' W 095°17'0 0.0
2017-Sep-24 18:29N 29°44' W 095°17'0 0.0
2017-Sep-24 18:00N 29°44' W 095°17'0 0.0
2017-Sep-24 12:54N 29°44' W 095°17'1 1.4
2017-Sep-24 12:31N 29°44' W 095°16'2 4.5
2017-Sep-24 12:00N 29°44' W 095°13'3 5.6
2017-Sep-24 11:31N 29°45' W 095°11'3 6.4
2017-Sep-24 11:00N 29°44' W 095°07'1 2.5
2017-Sep-24 10:25N 29°45' W 095°06'1 2.1
2017-Sep-24 09:54N 29°46' W 095°07'0 0.7
2017-Sep-24 09:29N 29°46' W 095°07'0 0.0
2017-Sep-24 08:56N 29°46' W 095°07'1 0.1
2017-Sep-24 00:47N 29°46' W 095°07'1 3.2
2017-Sep-24 00:30N 29°45' W 095°06'1 0.4
2017-Sep-23 22:27N 29°45' W 095°06'0 0.0
2017-Sep-23 21:52N 29°45' W 095°06'0 0.0
2017-Sep-23 21:29N 29°45' W 095°06'0 0.0
2017-Sep-23 19:37N 29°45' W 095°06'2 0.0
2017-Sep-22 01:17N 29°47' W 095°06'0 0.1
2017-Sep-22 00:56N 29°47' W 095°06'1 2.5
2017-Sep-22 00:30N 29°46' W 095°05'5 6.7
2017-Sep-21 23:43N 29°45' W 095°11'2 6.9
2017-Sep-21 23:27N 29°43' W 095°13'3 5.3
2017-Sep-21 22:59N 29°44' W 095°16'1 1.1
2017-Sep-21 22:30N 29°44' W 095°17'0 0.2
2017-Sep-21 22:00N 29°44' W 095°17'1 0.6
2017-Sep-21 20:57N 29°44' W 095°17'0 0.0
2017-Sep-21 20:16N 29°44' W 095°17'0 0.0
2017-Sep-21 20:00N 29°44' W 095°17'0 0.0
2017-Sep-21 19:01N 29°44' W 095°17'0 0.4
2017-Sep-21 19:00N 29°44' W 095°17'0 0.0
2017-Sep-21 18:18N 29°44' W 095°17'0 0.0
2017-Sep-21 18:01N 29°44' W 095°17'0 0.0
2017-Sep-21 15:05N 29°44' W 095°17'0 0.1
2017-Sep-21 15:00N 29°44' W 095°17'0 0.1
2017-Sep-21 14:31N 29°44' W 095°17'1 1.3
2017-Sep-21 13:25N 29°44' W 095°15'4 5.3
2017-Sep-21 12:43N 29°45' W 095°11'1 7.3
2017-Sep-21 12:31N 29°45' W 095°10'4 3.0
2017-Sep-21 11:17N 29°47' W 095°06'0 0.0
2017-Sep-21 10:44N 29°47' W 095°06'0 0.0
2017-Sep-21 10:30N 29°47' W 095°06'0 0.0
2017-Sep-21 09:44N 29°47' W 095°06'0 0.0
2017-Sep-21 09:18N 29°47' W 095°06'0 0.0
2017-Sep-21 08:51N 29°47' W 095°06'0 0.0
2017-Sep-21 08:17N 29°47' W 095°06'0 0.0
2017-Sep-21 08:00N 29°47' W 095°06'0 0.0
2017-Sep-21 07:11N 29°47' W 095°06'0 0.0
2017-Sep-21 07:00N 29°47' W 095°06'0 0.0
2017-Sep-21 06:02N 29°47' W 095°06'0 0.2
2017-Sep-21 06:00N 29°47' W 095°06'0 0.0
2017-Sep-21 05:27N 29°47' W 095°06'0 0.0
2017-Sep-21 02:55N 29°47' W 095°06'1 1.9
2017-Sep-21 02:30N 29°46' W 095°06'1 2.7
2017-Sep-21 01:58N 29°44' W 095°07'1 0.2
2017-Sep-20 19:12N 29°44' W 095°08'0 0.0
2017-Sep-20 18:58N 29°44' W 095°08'0 0.0
2017-Sep-20 17:53N 29°44' W 095°08'3 6.8
2017-Sep-20 17:25N 29°45' W 095°11'3 7.2
2017-Sep-20 16:59N 29°43' W 095°14'2 1.8
2017-Sep-20 15:46N 29°44' W 095°17'0 0.0
2017-Sep-20 15:26N 29°44' W 095°17'0 0.0
2017-Sep-20 15:00N 29°44' W 095°17'0 0.0
2017-Sep-20 14:00N 29°44' W 095°17'0 0.0
2017-Sep-20 13:25N 29°44' W 095°17'0 0.0
2017-Sep-20 12:07N 29°44' W 095°17'0 0.0
2017-Sep-20 11:48N 29°44' W 095°17'0 0.0
2017-Sep-20 11:28N 29°44' W 095°17'0 0.0
2017-Sep-20 07:55N 29°44' W 095°17'0 0.0
2017-Sep-20 07:30N 29°44' W 095°17'1 1.7
2017-Sep-20 06:58N 29°45' W 095°17'2 4.2
2017-Sep-20 06:27N 29°44' W 095°15'3 5.4
2017-Sep-20 05:53N 29°44' W 095°12'2 5.0
2017-Sep-20 05:31N 29°45' W 095°10'4 5.6
2017-Sep-20 04:51N 29°45' W 095°06'2 4.7
2017-Sep-20 04:30N 29°45' W 095°04'2 0.2
2017-Sep-19 18:09N 29°47' W 095°06'0 0.0
2017-Sep-19 17:51N 29°47' W 095°06'0 0.0
2017-Sep-19 17:21N 29°47' W 095°06'0 0.0
2017-Sep-19 16:30N 29°47' W 095°06'0 0.0
2017-Sep-19 15:54N 29°47' W 095°06'0 0.0
2017-Sep-19 15:15N 29°47' W 095°06'0 0.0
2017-Sep-19 14:45N 29°47' W 095°06'0 0.0
2017-Sep-19 14:30N 29°47' W 095°06'0 0.0
2017-Sep-19 13:48N 29°47' W 095°06'0 0.0
2017-Sep-19 13:12N 29°47' W 095°06'0 0.0
2017-Sep-19 12:54N 29°47' W 095°06'0 0.0
2017-Sep-19 12:30N 29°47' W 095°06'0 0.0
2017-Sep-19 11:57N 29°47' W 095°06'1 1.7
2017-Sep-19 11:30N 29°46' W 095°06'3 4.0
2017-Sep-19 10:48N 29°44' W 095°08'2 4.4
2017-Sep-19 10:25N 29°45' W 095°10'0 0.1
2017-Sep-19 10:00N 29°45' W 095°10'0 0.0
2017-Sep-19 09:30N 29°45' W 095°10'0 0.0
2017-Sep-19 09:00N 29°45' W 095°10'0 0.0
2017-Sep-19 08:30N 29°45' W 095°10'0 0.0
2017-Sep-19 07:58N 29°45' W 095°10'0 0.0
2017-Sep-19 07:30N 29°45' W 095°10'0 0.0
2017-Sep-19 06:36N 29°45' W 095°10'0 0.0
2017-Sep-19 06:22N 29°45' W 095°10'0 0.0
2017-Sep-19 06:00N 29°45' W 095°10'0 0.0
2017-Sep-19 05:23N 29°45' W 095°10'0 0.0
2017-Sep-19 04:59N 29°45' W 095°10'0 0.0
2017-Sep-19 04:30N 29°45' W 095°10'0 0.0
2017-Sep-19 04:00N 29°45' W 095°10'0 0.0
2017-Sep-19 03:22N 29°45' W 095°10'0 0.0
2017-Sep-19 03:00N 29°45' W 095°10'0 0.0
2017-Sep-19 02:30N 29°45' W 095°10'1 2.7
2017-Sep-19 02:00N 29°44' W 095°09'3 2.8
2017-Sep-19 00:46N 29°47' W 095°06'0 0.0
2017-Sep-19 00:30N 29°47' W 095°06'0 0.0
2017-Sep-19 00:00N 29°47' W 095°06'0 0.0
2017-Sep-18 23:29N 29°47' W 095°06'0 0.0
2017-Sep-18 23:00N 29°47' W 095°06'0 0.0
2017-Sep-18 22:30N 29°47' W 095°06'0 0.0
2017-Sep-18 22:00N 29°47' W 095°06'0 0.0
2017-Sep-18 21:30N 29°47' W 095°06'0 0.0
2017-Sep-18 20:59N 29°47' W 095°06'0 0.0
2017-Sep-18 20:30N 29°47' W 095°06'0 0.0
2017-Sep-18 20:00N 29°47' W 095°06'0 0.0
2017-Sep-18 19:12N 29°47' W 095°06'0 0.0
2017-Sep-18 18:59N 29°47' W 095°06'0 0.0
2017-Sep-18 18:30N 29°47' W 095°06'0 0.0
2017-Sep-18 18:00N 29°47' W 095°06'0 0.0
2017-Sep-18 17:30N 29°47' W 095°06'0 0.0
2017-Sep-18 17:00N 29°47' W 095°06'0 0.0
2017-Sep-18 16:30N 29°47' W 095°06'0 0.0
2017-Sep-18 16:00N 29°47' W 095°06'0 0.0
2017-Sep-18 15:30N 29°47' W 095°06'1 1.4
2017-Sep-18 15:00N 29°46' W 095°06'0 0.8
2017-Sep-18 14:30N 29°46' W 095°06'0 0.0
2017-Sep-18 05:41N 29°46' W 095°06'1 3.0
2017-Sep-18 05:29N 29°45' W 095°06'4 0.3
2017-Sep-17 18:46N 29°45' W 095°10'1 5.0
2017-Sep-17 18:29N 29°44' W 095°08'3 3.1
2017-Sep-17 17:28N 29°47' W 095°06'0 0.0
2017-Sep-17 09:49N 29°47' W 095°06'0 0.3
2017-Sep-17 09:08N 29°46' W 095°06'1 4.0
2017-Sep-17 08:58N 29°46' W 095°06'3 5.6
2017-Sep-17 08:30N 29°44' W 095°03'3 6.8
2017-Sep-17 08:00N 29°42' W 095°00'1 2.4
2017-Sep-17 07:30N 29°41' W 095°01'0 0.0
2017-Sep-17 07:00N 29°41' W 095°01'0 0.0
2017-Sep-17 06:30N 29°41' W 095°01'0 0.0
2017-Sep-17 06:00N 29°41' W 095°01'0 0.0
2017-Sep-17 05:30N 29°41' W 095°01'0 0.0
2017-Sep-17 05:00N 29°41' W 095°01'0 0.0
2017-Sep-17 04:30N 29°41' W 095°01'0 0.0
2017-Sep-17 04:00N 29°41' W 095°01'1 2.1
2017-Sep-17 03:26N 29°42' W 095°01'5 7.4
2017-Sep-17 02:43N 29°46' W 095°05'0 0.0
2017-Sep-16 19:20N 29°46' W 095°05'2 6.1
2017-Sep-16 19:00N 29°44' W 095°04'3 5.8
2017-Sep-16 18:30N 29°42' W 095°01'3 5.9
2017-Sep-16 18:00N 29°40' W 094°59'3 6.7
2017-Sep-16 17:30N 29°37' W 094°57'3 6.9
2017-Sep-16 17:00N 29°34' W 094°55'3 6.9
2017-Sep-16 16:30N 29°31' W 094°53'  

Dump ship's entire track history